Flight Track Log - Related Links

Times and Time Zones

All times are in EDT time to prevent confusion due to time zone crossing. See the EVA18 flight status page for this flight to view local times or setup timezone preferences in your user account.

Time Position Orientation Groundspeed Altitude Reporting Facility
EDT Latitude Longitude Course Direction KTS MPH feet Rate Location/Type
Fri 08:18:40 AM 25.0670 121.2310 42° Northeast 115 132  Level FlightAware ADS-B
Fri 08:19:02 AM 25.0770 121.2440 50° Northeast 175 201 1,636 Level FlightAware ADS-B
Fri 08:19:24 AM 25.0900 121.2600 48° Northeast 186 214 1,200 2,857 Climbing FlightAware ADS-B
Fri 08:19:44 AM 25.1020 121.2740 47° Northeast 184 212 2,000 1,650 Climbing FlightAware ADS-B
Fri 08:20:04 AM 25.1130 121.2900 53° Northeast 211 243 2,300 1,024 Climbing FlightAware ADS-B
Fri 08:20:25 AM 25.1270 121.3070 48° Northeast 230 265 2,700 1,500 Climbing FlightAware ADS-B
Fri 08:20:44 AM 25.1420 121.3240 46° Northeast 243 280 3,300 1,886 Climbing FlightAware ADS-B
Fri 08:21:00 AM 25.1550 121.3380 44° Northeast 250 288 3,800 2,167 Climbing FlightAware ADS-B
Fri 08:21:20 AM 25.1710 121.3570 47° Northeast 258 297 4,600 1,902 Climbing FlightAware ADS-B
Fri 08:21:41 AM 25.1890 121.3780 47° Northeast 274 315 5,100 1,784 Climbing FlightAware ADS-B
Fri 08:21:57 AM 25.2010 121.3960 54° Northeast 269 310 5,700 1,459 Climbing FlightAware ADS-B
Fri 08:22:18 AM 25.2110 121.4250 69° East 290 334 6,000 923 Climbing FlightAware ADS-B
Fri 08:22:36 AM 25.2170 121.4510 76° East 308 354 6,300 1,364 Climbing FlightAware ADS-B
Fri 08:23:02 AM 25.2280 121.4920 73° East 324 373 7,000 2,217 Climbing FlightAware ADS-B
Fri 08:23:22 AM 25.2370 121.5240 73° East 316 364 8,000 2,769 Climbing FlightAware ADS-B
Fri 08:23:41 AM 25.2450 121.5520 72° East 313 360 8,800 2,550 Climbing FlightAware ADS-B
Fri 08:24:02 AM 25.2530 121.5840 75° East 313 360 9,700 1,636 Climbing FlightAware ADS-B
Fri 08:24:36 AM 25.2680 121.6380 73° East 337 388 10,300 1,000 Climbing FlightAware ADS-B
Fri 08:25:14 AM 25.2860 121.7050 73° East 369 425 10,900 1,135 Climbing FlightAware ADS-B
Fri 08:25:50 AM 25.3040 121.7730 74° East 388 447 11,700 1,800 Climbing FlightAware ADS-B
Fri 08:26:24 AM 25.3210 121.8380 74° East 395 455 13,000 2,206 Climbing FlightAware ADS-B
Fri 08:26:58 AM 25.3390 121.9050 73° East 404 465 14,200 1,971 Climbing FlightAware ADS-B
Fri 08:27:34 AM 25.3580 121.9770 74° East 413 475 15,300 1,853 Climbing FlightAware ADS-B
Fri 08:28:06 AM 25.3750 122.0420 74° East 416 479 16,300 1,971 Climbing FlightAware ADS-B
Fri 08:28:44 AM 25.4010 122.1170 69° East 422 486 17,600 1,865 Climbing FlightAware ADS-B
Fri 08:29:20 AM 25.4400 122.1800 56° Northeast 429 494 18,600 1,667 Climbing FlightAware ADS-B
Fri 08:29:56 AM 25.4850 122.2470 53° Northeast 437 503 19,600 1,588 Climbing FlightAware ADS-B
Fri 08:30:28 AM 25.5250 122.3050 53° Northeast 445 512 20,400 1,500 Climbing FlightAware ADS-B
Fri 08:31:04 AM 25.5690 122.3700 53° Northeast 453 521 21,300 1,433 Climbing FlightAware ADS-B
Fri 08:31:35 AM 25.6080 122.4270 53° Northeast 460 529 22,000 1,521 Climbing FlightAware ADS-B
Fri 08:32:15 AM 25.6590 122.5030 53° Northeast 465 535 23,100 1,521 Climbing FlightAware ADS-B
Fri 08:32:46 AM 25.7010 122.5640 53° Northeast 469 540 23,800 1,391 Climbing FlightAware ADS-B
Fri 08:33:24 AM 25.7500 122.6370 53° Northeast 474 545 24,700 1,459 Climbing FlightAware ADS-B
Fri 08:34:00 AM 25.7980 122.7080 53° Northeast 479 551 25,600 1,343 Climbing FlightAware ADS-B
Fri 08:34:31 AM 25.8370 122.7650 53° Northeast 484 557 26,200 1,147 Climbing FlightAware ADS-B
Fri 08:35:08 AM 25.8890 122.8420 53° Northeast 493 567 26,900 1,083 Climbing FlightAware ADS-B
Fri 08:35:43 AM 25.9370 122.9140 53° Northeast 501 577 27,500 1,029 Climbing FlightAware ADS-B
Fri 08:36:18 AM 25.9880 122.9900 53° Northeast 508 585 28,100 1,043 Climbing FlightAware ADS-B
Fri 08:36:52 AM 26.0350 123.0600 53° Northeast 511 588 28,700 1,114 Climbing FlightAware ADS-B
Fri 08:37:28 AM 26.0860 123.1370 54° Northeast 516 594 29,400 1,167 Climbing FlightAware ADS-B
Fri 08:38:04 AM 26.1360 123.2120 53° Northeast 517 595 30,100 1,412 Climbing FlightAware ADS-B
Fri 08:38:36 AM 26.1810 123.2770 52° Northeast 511 588 31,000 1,391 Climbing FlightAware ADS-B
Fri 08:39:13 AM 26.2330 123.3570 54° Northeast 512 589 31,700 1,114 Climbing FlightAware ADS-B
Fri 08:39:46 AM 26.2810 123.4290 53° Northeast 512 589 32,300 985 Climbing FlightAware ADS-B
Fri 08:40:20 AM 26.3290 123.5000 53° Northeast 514 592 32,800 411 Climbing FlightAware ADS-B
Fri 08:40:59 AM 26.3760 123.5700 53° Northeast 514 592 32,800 174 Level FlightAware ADS-B
Fri 08:41:29 AM 26.4260 123.6480 54° Northeast 513 590 33,000 179 Climbing FlightAware ADS-B
Fri 08:42:06 AM 26.4710 123.7140 53° Northeast 513 590 33,000  Level FlightAware ADS-B
Fri 08:42:42 AM 26.5150 123.7790 53° Northeast 513 590 33,000  Level FlightAware ADS-B
Fri 08:43:18 AM 26.5590 123.8440 53° Northeast 513 590 33,000  Level FlightAware ADS-B
Fri 08:43:55 AM 26.6040 123.9100 53° Northeast 513 590 33,000  Level FlightAware ADS-B
Fri 08:44:32 AM 26.6480 123.9770 54° Northeast 513 590 33,000  Level FlightAware ADS-B
Fri 08:45:08 AM 26.6920 124.0420 53° Northeast 513 590 33,000  Level FlightAware ADS-B
Fri 08:45:46 AM 26.7380 124.1110 53° Northeast 513 590 33,000  Level FlightAware ADS-B
Fri 08:46:22 AM 26.7820 124.1760 53° Northeast 513 590 33,000  Level FlightAware ADS-B
Fri 08:46:59 AM 26.8270 124.2420 53° Northeast 513 590 33,000  Level FlightAware ADS-B
Fri 08:47:35 AM 26.8710 124.3070 53° Northeast 513 590 33,000  Level FlightAware ADS-B
Fri 08:48:11 AM 26.9140 124.3720 53° Northeast 513 590 33,000  Level FlightAware ADS-B
Fri 08:48:47 AM 26.9580 124.4370 53° Northeast 513 590 33,000  Level FlightAware ADS-B
Fri 08:49:23 AM 27.0020 124.5030 53° Northeast 513 590 33,000  Level FlightAware ADS-B
Fri 08:49:59 AM 27.0450 124.5680 53° Northeast 513 590 33,000  Level FlightAware ADS-B
Fri 08:50:33 AM 27.0870 124.6290 52° Northeast 513 590 33,000  Level FlightAware ADS-B
Fri 08:50:58 AM 27.2740 124.8300 44° Northeast 33,000  Level FlightAware ADS-B
Fri 08:51:41 AM 27.3430 124.9240 50° Northeast 559 643 33,000  Level FlightAware ADS-B
Fri 08:54:00 AM 27.5737 125.2398 50° Northeast  Level FlightAware Approximate
Fri 08:55:00 AM 27.6741 125.3757 50° Northeast  Level FlightAware Approximate
Fri 08:56:00 AM 27.7743 125.5117 50° Northeast  Level FlightAware Approximate
Fri 08:57:00 AM 27.8745 125.6481 50° Northeast  Level FlightAware Approximate
Fri 08:58:00 AM 27.9744 125.7847 50° Northeast  Level FlightAware Approximate
Fri 08:59:00 AM 28.0742 125.9215 50° Northeast  Level FlightAware Approximate
Fri 09:00:00 AM 28.1740 126.0586 50° Northeast  Level FlightAware Approximate
Fri 09:01:00 AM 28.2735 126.1959 51° Northeast  Level FlightAware Approximate
Fri 09:02:00 AM 28.3729 126.3335 51° Northeast  Level FlightAware Approximate
Fri 09:03:00 AM 28.4722 126.4714 51° Northeast  Level FlightAware Approximate
Fri 09:04:00 AM 28.5714 126.6095 51° Northeast  Level FlightAware Approximate
Fri 09:05:00 AM 28.6704 126.7479 51° Northeast  Level FlightAware Approximate
Fri 09:06:00 AM 28.7692 126.8865 51° Northeast  Level FlightAware Approximate
Fri 09:07:00 AM 28.8680 127.0255 51° Northeast  Level FlightAware Approximate
Fri 09:08:00 AM 28.9665 127.1646 51° Northeast  Level FlightAware Approximate
Fri 09:09:00 AM 29.0650 127.3040 51° Northeast  Level FlightAware Approximate
Fri 09:09:28 AM 28.9470 127.1370 51° Northeast 518 596 33,000  Level FlightAware ADS-B
Fri 09:10:01 AM 29.0030 127.2150 51° Northeast 516 594 33,000  Level FlightAware ADS-B
Fri 09:10:35 AM 29.0560 127.2910 51° Northeast 511 588 33,000  Level FlightAware ADS-B
Fri 09:11:34 AM 29.1420 127.4120 51° Northeast 511 588 33,000  Level FlightAware ADS-B
Fri 09:12:10 AM 29.1870 127.4770 52° Northeast 511 588 33,000  Level FlightAware ADS-B
Fri 09:12:45 AM 29.2470 127.5640 52° Northeast 509 586 33,000  Level FlightAware ADS-B
Fri 09:13:18 AM 29.2920 127.6280 51° Northeast 509 586 33,000  Level FlightAware ADS-B
Fri 09:13:54 AM 29.3380 127.6920 50° Northeast 509 586 33,000  Level FlightAware ADS-B
Fri 09:14:32 AM 29.3860 127.7600 51° Northeast 509 586 33,000  Level FlightAware ADS-B
Fri 09:15:08 AM 29.4310 127.8240 51° Northeast 509 586 33,000  Level FlightAware ADS-B
Fri 09:15:44 AM 29.4760 127.8890 51° Northeast 509 586 33,000  Level FlightAware ADS-B
Fri 09:16:20 AM 29.5220 127.9530 50° Northeast 509 586 33,000  Level FlightAware ADS-B
Fri 09:16:57 AM 29.5680 128.0190 51° Northeast 509 586 33,000  Level FlightAware ADS-B
Fri 09:17:33 AM 29.6140 128.0830 50° Northeast 509 586 33,000  Level FlightAware ADS-B
Fri 09:17:48 AM 29.6980 128.2140 52° Northeast 33,000  Level FlightAware ADS-B
Fri 09:20:00 AM 29.8470 128.4344 53° Northeast  Level FlightAware Approximate
Fri 09:21:00 AM 29.9419 128.5783 53° Northeast  Level FlightAware Approximate
Fri 09:22:00 AM 30.0372 128.7220 52° Northeast  Level FlightAware Approximate
Fri 09:23:00 AM 30.1332 128.8651 52° Northeast  Level FlightAware Approximate
Fri 09:24:00 AM 30.2290 129.0085 52° Northeast  Level FlightAware Approximate
Fri 09:25:00 AM 30.3247 129.1522 52° Northeast  Level FlightAware Approximate
Fri 09:28:00 AM 30.7496 129.6072 49° Northeast  Level Estimated
Fri 09:28:17 AM 30.6290 129.5250 49° Northeast 512 589 33,000  Level FlightAware ADS-B
Fri 09:28:53 AM 30.6890 129.6060 49° Northeast 513 590 33,000  Level FlightAware ADS-B
Fri 09:29:37 AM 30.7590 129.7020 50° Northeast 513 590 33,000  Level FlightAware ADS-B
Fri 09:30:11 AM 30.8110 129.7720 49° Northeast 514 592 33,000  Level FlightAware ADS-B
Fri 09:30:46 AM 30.8630 129.8440 50° Northeast 513 590 33,000  Level FlightAware ADS-B
Fri 09:31:20 AM 30.9190 129.9190 49° Northeast 513 590 33,000  Level FlightAware ADS-B
Fri 09:31:55 AM 30.9720 129.9920 50° Northeast 512 589 33,000  Level FlightAware ADS-B
Fri 09:32:30 AM 31.0220 130.0610 50° Northeast 512 589 33,000  Level FlightAware ADS-B
Fri 09:33:08 AM 31.0840 130.1450 49° Northeast 512 589 33,000  Level FlightAware ADS-B
Fri 09:33:49 AM 31.1470 130.2320 50° Northeast 513 590 33,000  Level FlightAware ADS-B
Fri 09:34:21 AM 31.1960 130.2990 49° Northeast 513 590 33,000  Level FlightAware ADS-B
Fri 09:34:54 AM 31.2470 130.3700 50° Northeast 514 592 33,000  Level FlightAware ADS-B
Fri 09:35:33 AM 31.3050 130.4500 50° Northeast 514 592 33,000  Level FlightAware ADS-B
Fri 09:36:04 AM 31.3500 130.5120 50° Northeast 515 593 33,000  Level FlightAware ADS-B
Fri 09:36:44 AM 31.4130 130.6000 50° Northeast 515 593 33,000  Level FlightAware ADS-B
Fri 09:37:18 AM 31.4650 130.6720 50° Northeast 515 593 33,000  Level FlightAware ADS-B
Fri 09:37:56 AM 31.5240 130.7550 50° Northeast 513 590 33,000  Level FlightAware ADS-B
Fri 09:38:26 AM 31.5660 130.8130 50° Northeast 513 590 33,000  Level FlightAware ADS-B
Fri 09:39:04 AM 31.6220 130.8910 50° Northeast 513 590 33,000  Level FlightAware ADS-B
Fri 09:39:39 AM 31.6750 130.9660 50° Northeast 515 593 33,000  Level FlightAware ADS-B
Fri 09:40:13 AM 31.7280 131.0400 50° Northeast 514 592 33,000  Level FlightAware ADS-B
Fri 09:40:47 AM 31.7850 131.1200 50° Northeast 515 593 33,000  Level FlightAware ADS-B
Fri 09:41:24 AM 31.8360 131.1920 50° Northeast 512 589 33,000  Level FlightAware ADS-B
Fri 09:41:59 AM 31.8940 131.2730 50° Northeast 511 588 33,000  Level FlightAware ADS-B
Fri 09:42:36 AM 31.9500 131.3530 50° Northeast 513 590 33,000  Level FlightAware ADS-B
Fri 09:43:08 AM 31.9980 131.4220 51° Northeast 513 590 33,000  Level FlightAware ADS-B
Fri 09:43:44 AM 32.0540 131.5010 50° Northeast 514 592 33,000  Level FlightAware ADS-B
Fri 09:44:15 AM 32.0990 131.5650 50° Northeast 514 592 33,000  Level FlightAware ADS-B
Fri 09:44:51 AM 32.1520 131.6400 50° Northeast 514 592 33,000  Level FlightAware ADS-B
Fri 09:45:27 AM 32.2070 131.7190 51° Northeast 515 593 33,000  Level FlightAware ADS-B
Fri 09:46:01 AM 32.2590 131.7930 50° Northeast 516 594 33,000  Level FlightAware ADS-B
Fri 09:46:38 AM 32.3170 131.8770 51° Northeast 516 594 33,000  Level FlightAware ADS-B
Fri 09:47:14 AM 32.3690 131.9520 51° Northeast 517 595 33,000  Level FlightAware ADS-B
Fri 09:47:50 AM 32.4230 132.0300 51° Northeast 517 595 33,000  Level FlightAware ADS-B
Fri 09:48:26 AM 32.4800 132.1120 50° Northeast 518 596 33,000  Level FlightAware ADS-B
Fri 09:48:58 AM 32.5320 132.1880 51° Northeast 521 600 33,000  Level FlightAware ADS-B
Fri 09:49:33 AM 32.5830 132.2610 50° Northeast 521 600 33,000  Level FlightAware ADS-B
Fri 09:50:03 AM 32.6300 132.3300 51° Northeast 521 600 33,000  Level FlightAware ADS-B
Fri 09:50:49 AM 32.6940 132.4230 51° Northeast 522 601 33,000  Level FlightAware ADS-B
Fri 09:51:37 AM 32.7620 132.5220 51° Northeast 521 600 33,000  Level FlightAware ADS-B
Fri 09:52:13 AM 32.8210 132.6080 51° Northeast 519 597 33,000  Level FlightAware ADS-B
Fri 09:52:58 AM 32.8970 132.7200 51° Northeast 519 597 33,000  Level FlightAware ADS-B
Fri 09:53:28 AM 32.9420 132.7860 51° Northeast 519 597 33,000  Level FlightAware ADS-B
Fri 09:54:03 AM 32.9940 132.8620 51° Northeast 522 601 33,000  Level FlightAware ADS-B
Fri 09:54:43 AM 33.0520 132.9480 51° Northeast 522 601 33,000  Level FlightAware ADS-B
Fri 09:55:23 AM 33.1160 133.0440 51° Northeast 522 601 33,000  Level FlightAware ADS-B
Fri 09:55:58 AM 33.1680 133.1200 51° Northeast 522 601 33,000  Level FlightAware ADS-B
Fri 09:56:28 AM 33.2110 133.1850 52° Northeast 522 601 33,000  Level FlightAware ADS-B
Fri 09:57:09 AM 33.2740 133.2790 51° Northeast 523 602 33,000  Level FlightAware ADS-B
Fri 09:57:44 AM 33.3250 133.3540 51° Northeast 523 602 33,000  Level FlightAware ADS-B
Fri 09:58:19 AM 33.3800 133.4370 52° Northeast 523 602 33,000  Level FlightAware ADS-B
Fri 09:58:54 AM 33.4340 133.5180 51° Northeast 524 603 33,000  Level FlightAware ADS-B
Fri 09:59:29 AM 33.4870 133.5970 51° Northeast 524 603 33,000  Level FlightAware ADS-B
Fri 09:59:59 AM 33.5310 133.6650 52° Northeast 525 604 33,000  Level FlightAware ADS-B
Fri 10:00:39 AM 33.5940 133.7550 50° Northeast 520 598 33,000  Level FlightAware ADS-B
Fri 10:01:14 AM 33.6500 133.8320 49° Northeast 519 597 33,000  Level FlightAware ADS-B
Fri 10:01:44 AM 33.6970 133.8980 49° Northeast 520 598 33,000  Level FlightAware ADS-B
Fri 10:02:24 AM 33.7610 133.9870 49° Northeast 526 605 33,000  Level FlightAware ADS-B
Fri 10:02:59 AM 33.8160 134.0640 49° Northeast 526 605 33,000  Level FlightAware ADS-B
Fri 10:03:34 AM 33.8710 134.1420 50° Northeast 527 606 33,000  Level FlightAware ADS-B
Fri 10:04:10 AM 33.9260 134.2210 50° Northeast 528 608 33,000  Level FlightAware ADS-B
Fri 10:04:44 AM 33.9810 134.3000 50° Northeast 528 608 33,000  Level FlightAware ADS-B
Fri 10:05:19 AM 34.0360 134.3770 49° Northeast 528 608 33,000  Level FlightAware ADS-B
Fri 10:05:54 AM 34.0880 134.4640 54° Northeast 527 606 33,000  Level FlightAware ADS-B
Fri 10:06:34 AM 34.1390 134.5620 58° Northeast 534 615 33,000  Level FlightAware ADS-B
Fri 10:07:10 AM 34.1840 134.6520 59° Northeast 535 616 33,000  Level FlightAware ADS-B
Fri 10:07:44 AM 34.2280 134.7410 59° Northeast 536 617 33,000  Level FlightAware ADS-B
Fri 10:08:19 AM 34.2730 134.8330 59° Northeast 536 617 33,000  Level FlightAware ADS-B
Fri 10:08:57 AM 34.3210 134.9310 59° Northeast 537 618 33,000  Level FlightAware ADS-B
Fri 10:09:32 AM 34.3640 135.0220 60° Northeast 535 616 33,000  Level FlightAware ADS-B
Fri 10:10:02 AM 34.4010 135.0990 60° Northeast 535 616 33,000  Level FlightAware ADS-B
Fri 10:10:42 AM 34.4510 135.2020 59° Northeast 534 615 33,000  Level FlightAware ADS-B
Fri 10:11:02 AM 34.4730 135.2490 60° Northeast 534 615 33,000  Level FlightAware ADS-B
Fri 10:11:57 AM 34.5430 135.3950 60° Northeast 535 616 33,000  Level FlightAware ADS-B
Fri 10:12:32 AM 34.5880 135.4890 60° Northeast 535 616 33,000  Level FlightAware ADS-B
Fri 10:13:07 AM 34.6300 135.5780 60° Northeast 536 617 33,000  Level FlightAware ADS-B
Fri 10:13:43 AM 34.6710 135.6640 60° Northeast 537 618 33,000  Level FlightAware ADS-B
Fri 10:14:17 AM 34.7140 135.7550 60° Northeast 535 616 33,000  Level FlightAware ADS-B
Fri 10:14:52 AM 34.7600 135.8510 60° Northeast 535 616 33,000  Level FlightAware ADS-B
Fri 10:15:22 AM 34.7950 135.9260 60° Northeast 535 616 33,000  Level FlightAware ADS-B
Fri 10:15:52 AM 34.8330 136.0080 61° Northeast 536 617 33,000  Level FlightAware ADS-B
Fri 10:16:32 AM 34.8820 136.1110 60° Northeast 536 617 33,000  Level FlightAware ADS-B
Fri 10:17:07 AM 34.9260 136.2050 60° Northeast 536 617 33,000  Level FlightAware ADS-B
Fri 10:17:42 AM 34.9690 136.2970 60° Northeast 536 617 33,000  Level FlightAware ADS-B
Fri 10:18:17 AM 35.0060 136.3790 61° Northeast 537 618 33,000  Level FlightAware ADS-B
Fri 10:18:53 AM 35.0540 136.4820 60° Northeast 538 619 33,000  Level FlightAware ADS-B
Fri 10:19:22 AM 35.0880 136.5550 60° Northeast 539 620 33,000  Level FlightAware ADS-B
Fri 10:20:03 AM 35.1410 136.6700 61° Northeast 533 613 33,000  Level FlightAware ADS-B
Fri 10:20:44 AM 35.1870 136.7700 61° Northeast 538 619 33,000  Level FlightAware ADS-B
Fri 10:21:16 AM 35.2220 136.8470 61° Northeast 538 619 33,000  Level FlightAware ADS-B
Fri 10:21:59 AM 35.2800 136.9750 61° Northeast 536 617 33,000  Level FlightAware ADS-B
Fri 10:22:34 AM 35.3240 137.0690 60° Northeast 540 621 33,000  Level FlightAware ADS-B
Fri 10:23:08 AM 35.3650 137.1620 62° Northeast 538 619 33,000  Level FlightAware ADS-B
Fri 10:23:53 AM 35.4210 137.2850 61° Northeast 542 624 33,000  Level FlightAware ADS-B
Fri 10:24:23 AM 35.4570 137.3650 61° Northeast 542 624 33,000  Level FlightAware ADS-B
Fri 10:24:58 AM 35.5000 137.4590 61° Northeast 542 624 33,000  Level FlightAware ADS-B
Fri 10:25:38 AM 35.5480 137.5670 61° Northeast 542 624 33,000  Level FlightAware ADS-B
Fri 10:26:09 AM 35.5840 137.6480 61° Northeast 542 624 33,000  Level FlightAware ADS-B
Fri 10:26:48 AM 35.6320 137.7550 61° Northeast 540 621 33,000  Level FlightAware ADS-B
Fri 10:27:18 AM 35.6680 137.8350 61° Northeast 539 620 33,000  Level FlightAware ADS-B
Fri 10:27:58 AM 35.7160 137.9440 62° Northeast 540 621 33,000  Level FlightAware ADS-B
Fri 10:28:28 AM 35.7520 138.0240 61° Northeast 540 621 33,000  Level FlightAware ADS-B
Fri 10:29:08 AM 35.7990 138.1310 62° Northeast 540 621 33,000  Level FlightAware ADS-B
Fri 10:29:43 AM 35.8410 138.2260 61° Northeast 540 621 33,000  Level FlightAware ADS-B
Fri 10:30:16 AM 35.8760 138.3070 62° Northeast 541 623 33,000  Level FlightAware ADS-B
Fri 10:30:53 AM 35.9240 138.4160 61° Northeast 541 623 33,000  Level FlightAware ADS-B
Fri 10:31:28 AM 35.9650 138.5100 62° Northeast 542 624 33,000  Level FlightAware ADS-B
Fri 10:31:58 AM 36.0010 138.5940 62° Northeast 539 620 33,000  Level FlightAware ADS-B
Fri 10:32:38 AM 36.0440 138.7000 63° Northeast 544 626 33,000  Level FlightAware ADS-B
Fri 10:33:08 AM 36.0770 138.7840 64° Northeast 542 624 33,000  Level FlightAware ADS-B
Fri 10:33:43 AM 36.1150 138.8860 65° Northeast 546 628 33,000  Level FlightAware ADS-B
Fri 10:34:24 AM 36.1530 138.9880 65° Northeast 546 628 33,000  Level FlightAware ADS-B
Fri 10:34:53 AM 36.1890 139.0850 65° Northeast 547 629 33,000  Level FlightAware ADS-B
Fri 10:35:37 AM 36.2350 139.2110 66° East 547 629 33,000  Level FlightAware ADS-B
Fri 10:36:10 AM 36.2690 139.3030 65° Northeast 548 631 33,000  Level FlightAware ADS-B
Fri 10:36:44 AM 36.3060 139.4040 66° East 548 631 33,000  Level FlightAware ADS-B
Fri 10:37:24 AM 36.3470 139.5170 66° East 548 631 33,000  Level FlightAware ADS-B
Fri 10:37:58 AM 36.3830 139.6150 65° Northeast 549 632 33,000  Level FlightAware ADS-B
Fri 10:38:34 AM 36.4200 139.7180 66° East 549 632 33,000  Level FlightAware ADS-B
Fri 10:39:08 AM 36.4560 139.8150 65° Northeast 549 632 33,000  Level FlightAware ADS-B
Fri 10:39:41 AM 36.4900 139.9090 66° East 548 631 33,000  Level FlightAware ADS-B
Fri 10:40:16 AM 36.5260 140.0110 66° East 549 632 33,000  Level FlightAware ADS-B
Fri 10:40:52 AM 36.5630 140.1130 66° East 549 632 33,000  Level FlightAware ADS-B
Fri 10:41:30 AM 36.6030 140.2240 66° East 548 631 33,000  Level FlightAware ADS-B
Fri 10:42:04 AM 36.6370 140.3210 66° East 550 633 33,000  Level FlightAware ADS-B
Fri 10:42:39 AM 36.6730 140.4230 66° East 552 635 33,000  Level FlightAware ADS-B
Fri 10:43:12 AM 36.7070 140.5190 66° East 553 636 33,000  Level FlightAware ADS-B
Fri 10:43:46 AM 36.7420 140.6180 66° East 554 638 33,000  Level FlightAware ADS-B
Fri 10:44:24 AM 36.7820 140.7300 66° East 555 639 33,000  Level FlightAware ADS-B
Fri 10:45:00 AM 36.8190 140.8350 66° East 557 641 33,000  Level FlightAware ADS-B
Fri 10:45:34 AM 36.8540 140.9360 67° East 558 642 33,000  Level FlightAware ADS-B
Fri 10:46:10 AM 36.8910 141.0430 67° East 559 643 33,000  Level FlightAware ADS-B
Fri 10:46:43 AM 36.9240 141.1370 66° East 560 644 33,000  Level FlightAware ADS-B
Fri 10:47:26 AM 36.9660 141.2610 67° East 564 649 33,000  Level FlightAware ADS-B
Fri 10:47:57 AM 36.9920 141.3360 67° East 565 650 33,000  Level FlightAware ADS-B
Fri 10:48:36 AM 37.0400 141.4760 67° East 565 650 33,000  Level FlightAware ADS-B
Fri 10:49:09 AM 37.0740 141.5750 67° East 563 648 33,000  Level FlightAware ADS-B
Fri 10:49:44 AM 37.1090 141.6770 67° East 564 649 33,000  Level FlightAware ADS-B
Fri 10:50:22 AM 37.1460 141.7860 67° East 561 646 33,000  Level FlightAware ADS-B
Fri 10:50:54 AM 37.1820 141.8920 67° East 559 643 33,000  Level FlightAware ADS-B
Fri 10:51:30 AM 37.2180 141.9980 67° East 555 639 33,000  Level FlightAware ADS-B
Fri 10:52:06 AM 37.2520 142.1010 67° East 553 636 33,000  Level FlightAware ADS-B
Fri 10:52:40 AM 37.2880 142.2070 67° East 554 638 33,000  Level FlightAware ADS-B
Fri 10:53:15 AM 37.3220 142.3110 68° East 553 636 33,000  Level FlightAware ADS-B
Fri 10:53:55 AM 37.3610 142.4280 67° East 551 634 33,000  Level FlightAware ADS-B
Fri 10:54:30 AM 37.3950 142.5310 67° East 550 633 33,000  Level FlightAware ADS-B
Fri 10:55:06 AM 37.4290 142.6340 67° East 551 634 33,000  Level FlightAware ADS-B
Fri 10:55:45 AM 37.4680 142.7530 68° East 551 634 33,000  Level FlightAware ADS-B
Fri 10:56:16 AM 37.4980 142.8420 67° East 552 635 33,000  Level FlightAware ADS-B
Fri 10:57:01 AM 37.5410 142.9750 68° East 552 635 33,000  Level FlightAware ADS-B
Fri 10:57:41 AM 37.5780 143.0890 68° East 553 636 33,000  Level FlightAware ADS-B
Fri 10:58:16 AM 37.6120 143.1950 68° East 553 636 33,000  Level FlightAware ADS-B
Fri 10:58:48 AM 37.6420 143.2860 67° East 554 638 33,000 174 Level FlightAware ADS-B
Fri 10:59:25 AM 37.6810 143.4090 68° East 553 636 33,200 324 Climbing FlightAware ADS-B
Fri 11:00:02 AM 37.7150 143.5140 68° East 551 634 33,400 429 Climbing FlightAware ADS-B
Fri 11:00:35 AM 37.7470 143.6150 68° East 554 638 33,700 507 Climbing FlightAware ADS-B
Fri 11:01:13 AM 37.7820 143.7250 68° East 558 642 34,000 247 Climbing FlightAware ADS-B
Fri 11:01:48 AM 37.8170 143.8380 69° East 564 649 34,000  Level FlightAware ADS-B
Fri 11:02:26 AM 37.8490 143.9370 68° East 564 649 34,000  Level FlightAware ADS-B
Fri 11:03:03 AM 37.8800 144.0330 68° East 564 649 34,000  Level FlightAware ADS-B
Fri 11:03:38 AM 37.9090 144.1240 68° East 564 649 34,000  Level FlightAware ADS-B
Fri 11:04:14 AM 37.9390 144.2180 68° East 564 649 34,000  Level FlightAware ADS-B
Fri 11:04:50 AM 37.9690 144.3120 68° East 564 649 34,000  Level FlightAware ADS-B
Fri 11:05:25 AM 37.9980 144.4030 68° East 564 649 34,000  Level FlightAware ADS-B
Fri 11:05:59 AM 38.0260 144.4920 68° East 564 649 34,000  Level FlightAware ADS-B
Fri 11:06:50 AM 38.1000 144.7480 70° East 560 644 34,000  Level FlightAware ADS-B
Fri 11:07:30 AM 38.1400 144.8790 69° East 560 644 34,000  Level FlightAware ADS-B
Fri 11:08:15 AM 38.1820 145.0170 69° East 560 644 34,000  Level FlightAware ADS-B
Fri 11:08:54 AM 38.2120 145.1150 69° East 563 648 34,000  Level FlightAware ADS-B
Fri 11:09:31 AM 38.2410 145.2130 69° East 563 648 34,000  Level FlightAware ADS-B
Fri 11:10:11 AM 38.2730 145.3180 69° East 563 648 34,000  Level FlightAware ADS-B
Fri 11:10:47 AM 38.3010 145.4130 69° East 563 648 34,000  Level FlightAware ADS-B
Fri 11:11:30 AM 38.3810 145.5760 58° Northeast 557 641 34,000  Level FlightAware ADS-B
Fri 11:11:52 AM 38.4300 145.6350 43° Northeast 553 636 34,000  Level FlightAware ADS-B
Fri 11:12:32 AM 38.4940 145.7100 43° Northeast 553 636 34,000  Level FlightAware ADS-B
Fri 11:13:10 AM 38.5540 145.7820 43° Northeast 553 636 34,000  Level FlightAware ADS-B
Fri 11:13:46 AM 38.6120 145.8510 43° Northeast 553 636 34,000  Level FlightAware ADS-B
Fri 11:14:22 AM 38.6690 145.9190 43° Northeast 553 636 34,000  Level FlightAware ADS-B
Fri 11:14:59 AM 38.7280 145.9890 43° Northeast 553 636 34,000  Level FlightAware ADS-B
Fri 11:15:35 AM 38.7850 146.0580 43° Northeast 553 636 34,000  Level FlightAware ADS-B
Fri 11:16:11 AM 38.8420 146.1260 43° Northeast 553 636 34,000  Level FlightAware ADS-B
Fri 11:16:47 AM 38.9000 146.1950 43° Northeast 553 636 34,000  Level FlightAware ADS-B
Fri 11:17:23 AM 38.9570 146.2640 43° Northeast 553 636 34,000  Level FlightAware ADS-B
Fri 11:18:00 AM 39.0160 146.3340 43° Northeast 553 636 34,000  Level FlightAware ADS-B
Fri 11:18:34 AM 39.0700 146.3990 43° Northeast 553 636 34,000  Level FlightAware ADS-B
Fri 11:19:11 AM 39.1290 146.4700 43° Northeast 553 636 34,000  Level FlightAware ADS-B
Fri 11:19:48 AM 39.1870 146.5410 43° Northeast 553 636 34,000  Level FlightAware ADS-B
Fri 11:20:25 AM 39.2460 146.6120 43° Northeast 553 636 34,000  Level FlightAware ADS-B
Fri 11:21:01 AM 39.3030 146.6810 43° Northeast 553 636 34,000  Level FlightAware ADS-B
Fri 11:21:36 AM 39.3590 146.7480 43° Northeast 553 636 34,000  Level FlightAware ADS-B
Fri 11:24:00 AM 39.6279 147.0891 44° Northeast  Level FlightAware Approximate
Fri 11:25:00 AM 39.7397 147.2321 44° Northeast  Level FlightAware Approximate
Fri 11:26:00 AM 39.8530 147.3731 43° Northeast  Level FlightAware Approximate
Fri 11:27:00 AM 39.9668 147.5139 43° Northeast  Level FlightAware Approximate
Fri 11:28:00 AM 40.0803 147.6551 44° Northeast  Level FlightAware Approximate
Fri 11:29:00 AM 40.1937 147.7968 44° Northeast  Level FlightAware Approximate
Fri 11:30:00 AM 40.3069 147.9390 44° Northeast  Level FlightAware Approximate
Fri 11:31:00 AM 40.4199 148.0816 44° Northeast  Level FlightAware Approximate
Fri 11:32:00 AM 40.5328 148.2247 44° Northeast  Level FlightAware Approximate
Fri 11:33:00 AM 40.6454 148.3684 44° Northeast  Level FlightAware Approximate
Fri 11:34:00 AM 40.7579 148.5125 44° Northeast  Level FlightAware Approximate
Fri 11:35:00 AM 40.8703 148.6570 44° Northeast  Level FlightAware Approximate
Fri 11:36:00 AM 40.9824 148.8021 44° Northeast  Level FlightAware Approximate
Fri 11:37:00 AM 41.0942 148.9478 45° Northeast  Level FlightAware Approximate
Fri 11:38:00 AM 41.2051 149.0951 45° Northeast  Level FlightAware Approximate
Fri 11:39:00 AM 41.3157 149.2429 45° Northeast  Level FlightAware Approximate
Fri 11:40:00 AM 41.4262 149.3912 45° Northeast  Level FlightAware Approximate
Fri 11:41:00 AM 41.5364 149.5400 45° Northeast  Level FlightAware Approximate
Fri 11:42:00 AM 41.6465 149.6894 45° Northeast  Level FlightAware Approximate
Fri 11:43:00 AM 41.7564 149.8392 45° Northeast  Level FlightAware Approximate
Fri 11:44:00 AM 41.8661 149.9896 46° Northeast  Level FlightAware Approximate
Fri 11:45:00 AM 41.9755 150.1404 46° Northeast  Level FlightAware Approximate
Fri 11:46:00 AM 42.0848 150.2918 46° Northeast  Level FlightAware Approximate
Fri 11:47:00 AM 42.1939 150.4437 46° Northeast  Level FlightAware Approximate
Fri 11:48:00 AM 42.3028 150.5962 46° Northeast  Level FlightAware Approximate
Fri 11:49:00 AM 42.4115 150.7491 46° Northeast  Level FlightAware Approximate
Fri 11:50:00 AM 42.5200 150.9026 46° Northeast  Level FlightAware Approximate
Fri 11:51:00 AM 42.6282 151.0566 46° Northeast  Level FlightAware Approximate
Fri 11:52:00 AM 42.7363 151.2112 46° Northeast  Level FlightAware Approximate
Fri 11:53:00 AM 42.8442 151.3663 46° Northeast  Level FlightAware Approximate
Fri 11:54:00 AM 42.9518 151.5219 47° Northeast  Level FlightAware Approximate
Fri 11:55:00 AM 43.0592 151.6781 47° Northeast  Level FlightAware Approximate
Fri 11:56:00 AM 43.1665 151.8349 47° Northeast  Level FlightAware Approximate
Fri 11:57:00 AM 43.2735 151.9922 47° Northeast  Level FlightAware Approximate
Fri 11:58:00 AM 43.3803 152.1500 47° Northeast  Level FlightAware Approximate
Fri 11:59:00 AM 43.4868 152.3084 47° Northeast  Level FlightAware Approximate
Fri 12:00:00 PM 43.5932 152.4673 47° Northeast  Level FlightAware Approximate
Fri 12:01:00 PM 43.6993 152.6269 47° Northeast  Level FlightAware Approximate
Fri 12:02:00 PM 43.8052 152.7870 47° Northeast  Level FlightAware Approximate
Fri 12:03:00 PM 43.9109 152.9476 48° Northeast  Level FlightAware Approximate
Fri 12:04:00 PM 44.0164 153.1088 48° Northeast  Level FlightAware Approximate
Fri 12:05:00 PM 44.1216 153.2706 48° Northeast  Level FlightAware Approximate
Fri 12:06:00 PM 44.2266 153.4330 48° Northeast  Level FlightAware Approximate
Fri 12:07:00 PM 44.3314 153.5959 48° Northeast  Level FlightAware Approximate
Fri 12:08:00 PM 44.4359 153.7595 48° Northeast  Level FlightAware Approximate
Fri 12:09:00 PM 44.5402 153.9236 48° Northeast  Level FlightAware Approximate
Fri 12:10:00 PM 44.6443 154.0883 48° Northeast  Level FlightAware Approximate
Fri 12:11:00 PM 44.7482 154.2536 48° Northeast  Level FlightAware Approximate
Fri 12:12:00 PM 44.8517 154.4195 49° Northeast  Level FlightAware Approximate
Fri 12:13:00 PM 44.9542 154.5871 49° Northeast  Level FlightAware Approximate
Fri 12:14:00 PM 45.0564 154.7553 49° Northeast  Level FlightAware Approximate
Fri 12:15:00 PM 45.1584 154.9241 49° Northeast  Level FlightAware Approximate
Fri 12:16:00 PM 45.2601 155.0934 49° Northeast  Level FlightAware Approximate
Fri 12:17:00 PM 45.3616 155.2634 50° Northeast  Level FlightAware Approximate
Fri 12:18:00 PM 45.4628 155.4340 50° Northeast  Level FlightAware Approximate
Fri 12:19:00 PM 45.5638 155.6052 50° Northeast  Level FlightAware Approximate
Fri 12:20:00 PM 45.6645 155.7771 50° Northeast  Level FlightAware Approximate
Fri 12:21:00 PM 45.7650 155.9495 50° Northeast  Level FlightAware Approximate
Fri 12:22:00 PM 45.8652 156.1226 50° Northeast  Level FlightAware Approximate
Fri 12:23:00 PM 45.9651 156.2963 50° Northeast  Level FlightAware Approximate
Fri 12:24:00 PM 46.0647 156.4706 50° Northeast  Level FlightAware Approximate
Fri 12:25:00 PM 46.1641 156.6455 51° Northeast  Level FlightAware Approximate
Fri 12:26:00 PM 46.2633 156.8211 51° Northeast  Level FlightAware Approximate
Fri 12:27:00 PM 46.3621 156.9973 51° Northeast  Level FlightAware Approximate
Fri 12:28:00 PM 46.4607 157.1742 51° Northeast  Level FlightAware Approximate
Fri 12:29:00 PM 46.5590 157.3517 51° Northeast  Level FlightAware Approximate
Fri 12:30:00 PM 46.6571 157.5298 51° Northeast  Level FlightAware Approximate
Fri 12:31:00 PM 46.7548 157.7086 51° Northeast  Level FlightAware Approximate
Fri 12:32:00 PM 46.8523 157.8880 51° Northeast  Level FlightAware Approximate
Fri 12:33:00 PM 46.9495 158.0681 52° Northeast  Level FlightAware Approximate
Fri 12:34:00 PM 47.0464 158.2489 52° Northeast  Level FlightAware Approximate
Fri 12:35:00 PM 47.1431 158.4303 52° Northeast  Level FlightAware Approximate
Fri 12:36:00 PM 47.2394 158.6123 52° Northeast  Level FlightAware Approximate
Fri 12:37:00 PM 47.3355 158.7950 52° Northeast  Level FlightAware Approximate
Fri 12:38:00 PM 47.4313 158.9784 52° Northeast  Level FlightAware Approximate
Fri 12:39:00 PM 47.5267 159.1624 52° Northeast  Level FlightAware Approximate
Fri 12:40:00 PM 47.6219 159.3472 53° Northeast  Level FlightAware Approximate
Fri 12:41:00 PM 47.7168 159.5326 53° Northeast  Level FlightAware Approximate
Fri 12:42:00 PM 47.8114 159.7186 53° Northeast  Level FlightAware Approximate
Fri 12:43:00 PM 47.9056 159.9054 53° Northeast  Level FlightAware Approximate
Fri 12:44:00 PM 47.9996 160.0928 53° Northeast  Level FlightAware Approximate
Fri 12:45:00 PM 48.0933 160.2809 53° Northeast  Level FlightAware Approximate
Fri 12:45:04 PM 48.2833 160.6833 54° Northeast 598 688 34,000  Level Anchorage Center
Fri 12:46:00 PM 48.1866 160.4697 53° Northeast  Level FlightAware Approximate
Fri 12:47:00 PM 48.2797 160.6592 54° Northeast  Level FlightAware Approximate
Fri 12:48:00 PM 48.3715 160.8504 54° Northeast  Level FlightAware Approximate
Fri 12:49:00 PM 48.4630 161.0423 54° Northeast  Level FlightAware Approximate
Fri 12:50:00 PM 48.5541 161.2348 54° Northeast  Level FlightAware Approximate
Fri 12:51:00 PM 48.9681 162.1417 55° Northeast 598 688 34,000  Level FlightAware Transoceanic
Fri 12:52:00 PM 49.0644 162.3533 55° Northeast 598 688 34,000  Level FlightAware Transoceanic
Fri 12:53:00 PM 49.1603 162.5657 55° Northeast 598 688 34,000  Level FlightAware Transoceanic
Fri 12:54:00 PM 49.2559 162.7789 56° Northeast 598 688 34,000  Level FlightAware Transoceanic
Fri 12:55:00 PM 49.3510 162.9929 56° Northeast 598 688 34,000  Level FlightAware Transoceanic
Fri 12:55:54 PM 49.3500 163.0000 56° Northeast 595 685 34,000  Level Anchorage Center
Fri 12:56:00 PM 49.4457 163.2078 56° Northeast 598 688 34,000  Level FlightAware Transoceanic
Fri 12:57:00 PM 49.5401 163.4235 56° Northeast 598 688 34,000  Level FlightAware Transoceanic
Fri 12:58:00 PM 49.6340 163.6401 56° Northeast 598 688 34,000  Level FlightAware Transoceanic
Fri 12:59:00 PM 49.7275 163.8574 56° Northeast 598 688 34,000  Level FlightAware Transoceanic
Fri 01:00:00 PM 49.8206 164.0757 57° Northeast 598 688 34,000  Level FlightAware Transoceanic
Fri 01:01:00 PM 49.9134 164.2947 57° Northeast 598 688 34,000  Level FlightAware Transoceanic
Fri 01:02:00 PM 49.9125 164.3005 57° Northeast 595 685 34,000  Level FlightAware Transoceanic
Fri 01:03:00 PM 50.0048 164.5202 57° Northeast 595 685 34,000  Level FlightAware Transoceanic
Fri 01:04:00 PM 50.0967 164.7408 57° Northeast 595 685 34,000  Level FlightAware Transoceanic
Fri 01:05:00 PM 50.1882 164.9621 57° Northeast 595 685 34,000  Level FlightAware Transoceanic
Fri 01:06:00 PM 50.2792 165.1843 57° Northeast 595 685 34,000  Level FlightAware Transoceanic
Fri 01:07:00 PM 50.3699 165.4074 58° Northeast 595 685 34,000  Level FlightAware Transoceanic
Fri 01:08:00 PM 50.4601 165.6313 58° Northeast 595 685 34,000 968 Level FlightAware Transoceanic
Fri 01:08:02 PM 50.4000 165.5167 58° Northeast 601 692 35,000  Climbing Anchorage Center
Fri 01:09:00 PM 50.5499 165.8561 58° Northeast 595 685 34,000 -508 Descending FlightAware Transoceanic
Fri 01:10:00 PM 50.6392 166.0818 58° Northeast 595 685 34,000  Level FlightAware Transoceanic
Fri 01:11:00 PM 50.7281 166.3082 58° Northeast 595 685 34,000  Level FlightAware Transoceanic
Fri 01:12:00 PM 50.8166 166.5356 58° Northeast 595 685 34,000  Level FlightAware Transoceanic
Fri 01:13:00 PM 50.9046 166.7638 59° Northeast 595 685 34,000 500 Level FlightAware Transoceanic
Fri 01:14:00 PM 50.9502 166.9088 59° Northeast 601 692 35,000 500 Climbing FlightAware Transoceanic
Fri 01:15:00 PM 51.0403 167.1440 59° Northeast 601 692 35,000  Level FlightAware Transoceanic
Fri 01:16:00 PM 51.1299 167.3801 59° Northeast 601 692 35,000  Level FlightAware Transoceanic
Fri 01:17:00 PM 51.2190 167.6171 59° Northeast 601 692 35,000  Level FlightAware Transoceanic
Fri 01:18:00 PM 51.3076 167.8551 59° Northeast 601 692 35,000  Level FlightAware Transoceanic
Fri 01:19:00 PM 51.3958 168.0939 60° Northeast 601 692 35,000  Level FlightAware Transoceanic
Fri 01:19:30 PM 51.4167 168.1333 60° Northeast 610 702 35,000  Level Anchorage Center
Fri 01:20:00 PM 51.4835 168.3337 60° Northeast 601 692 35,000  Level FlightAware Transoceanic
Fri 01:20:30 PM 51.4833 168.3333 62° Northeast 610 702 35,000  Level Anchorage Center
Fri 01:21:00 PM 51.5706 168.5744 60° Northeast 601 692 35,000  Level FlightAware Transoceanic
Fri 01:21:31 PM 51.5667 168.6000 63° Northeast 580 667 35,000  Level Anchorage Center
Fri 01:22:00 PM 51.6573 168.8160 60° Northeast 601 692 35,000  Level FlightAware Transoceanic
Fri 01:23:00 PM 51.7435 169.0586 60° Northeast 601 692 35,000  Level FlightAware Transoceanic
Fri 01:23:31 PM 51.7333 169.0500 59° Northeast 610 702 35,000  Level Anchorage Center
Fri 01:24:00 PM 51.8292 169.3021 60° Northeast 601 692 35,000  Level FlightAware Transoceanic
Fri 01:24:31 PM 51.8333 169.3167 59° Northeast 630 725 35,000  Level Anchorage Center
Fri 01:25:31 PM 51.9000 169.5167 62° Northeast 610 702 35,000  Level Anchorage Center
Fri 01:26:31 PM 52.0000 169.7833 59° Northeast 620 713 35,000  Level Anchorage Center
Fri 01:27:31 PM 52.0667 170.0000 63° Northeast 620 713 35,000  Level Anchorage Center
Fri 01:28:31 PM 52.1500 170.2667 63° Northeast 620 713 35,000  Level Anchorage Center
Fri 01:29:31 PM 52.2333 170.4833 58° Northeast 620 713 35,000  Level Anchorage Center
Fri 01:30:31 PM 52.3167 170.7500 63° Northeast 620 713 35,000  Level Anchorage Center
Fri 01:31:31 PM 52.3833 170.9667 63° Northeast 610 702 35,000  Level Anchorage Center
Fri 01:32:31 PM 52.4500 171.2500 69° East 620 713 35,000  Level Anchorage Center
Fri 01:33:31 PM 52.5333 171.5333 64° Northeast 620 713 35,000  Level Anchorage Center
Fri 01:34:31 PM 52.6000 171.7500 63° Northeast 610 702 35,000  Level Anchorage Center
Fri 01:35:31 PM 52.6833 172.0333 64° Northeast 620 713 35,000  Level Anchorage Center
Fri 01:36:31 PM 52.7333 172.2500 69° East 610 702 35,000  Level Anchorage Center
Fri 01:37:32 PM 52.8167 172.5333 64° Northeast 610 702 35,000  Level Anchorage Center
Fri 01:38:32 PM 52.8833 172.7667 65° Northeast 610 702 35,000  Level Anchorage Center
Fri 01:39:32 PM 52.9667 173.0500 64° Northeast 620 713 35,000  Level Anchorage Center
Fri 01:40:32 PM 53.0333 173.2833 65° Northeast 620 713 35,000  Level Anchorage Center
Fri 01:41:32 PM 53.1000 173.5667 69° East 630 725 35,000  Level Anchorage Center
Fri 01:42:32 PM 53.1667 173.8000 64° Northeast 630 725 35,000  Level Anchorage Center
Fri 01:43:32 PM 53.2333 174.1000 70° East 620 713 35,000  Level Anchorage Center
Fri 01:44:32 PM 53.3000 174.3333 64° Northeast 630 725 35,000  Level Anchorage Center
Fri 01:45:32 PM 53.3833 174.6333 65° Northeast 630 725 35,000  Level Anchorage Center
Fri 01:46:33 PM 53.4333 174.8667 70° East 630 725 35,000  Level Anchorage Center
Fri 01:47:32 PM 53.5000 175.1667 69° East 630 725 35,000  Level Anchorage Center
Fri 01:48:32 PM 53.5833 175.4500 64° Northeast 630 725 35,000  Level Anchorage Center
Fri 01:49:32 PM 53.6333 175.7000 71° East 630 725 35,000  Level Anchorage Center
Fri 01:50:33 PM 53.7000 175.9833 68° East 620 713 35,000  Level Anchorage Center
Fri 01:51:33 PM 53.7667 176.2333 66° East 620 713 35,000  Level Anchorage Center
Fri 01:52:33 PM 53.8333 176.5333 69° East 630 725 35,000  Level Anchorage Center
Fri 01:53:33 PM 53.8833 176.7667 70° East 620 713 35,000  Level Anchorage Center
Fri 01:54:33 PM 53.9500 177.0667 69° East 620 713 35,000  Level Anchorage Center
Fri 01:55:33 PM 54.0000 177.3167 71° East 630 725 35,000  Level Anchorage Center
Fri 01:56:33 PM 54.0667 177.6167 69° East 630 725 35,000  Level Anchorage Center
Fri 01:57:33 PM 54.1333 177.9333 70° East 620 713 35,000  Level Anchorage Center
Fri 01:58:33 PM 54.1833 178.1667 70° East 630 725 35,000  Level Anchorage Center
Fri 01:59:33 PM 54.2500 178.4833 70° East 610 702 35,000  Level Anchorage Center
Fri 02:00:33 PM 54.2833 178.7333 77° East 630 725 35,000  Level Anchorage Center
Fri 02:01:33 PM 54.3000 179.0000 84° East 630 725 35,000  Level Anchorage Center
Fri 02:05:00 PM 54.3619 179.3710 78° East  Level FlightAware Approximate
Fri 02:11:07 PM 54.6500 -178.1167 80° East 641 738 35,000  Level Anchorage Center
Fri 02:12:00 PM 54.5677 -178.7739 78° East  Level FlightAware Approximate
Fri 02:13:00 PM 54.5948 -178.5074 80° East  Level FlightAware Approximate
Fri 02:14:00 PM 54.6213 -178.2405 80° East  Level FlightAware Approximate
Fri 02:15:00 PM 54.6482 -177.9736 80° East  Level FlightAware Approximate
Fri 02:15:55 PM 54.7833 -176.6833 81° East 643 740 35,000  Level Anchorage Center
Fri 02:16:00 PM 54.6755 -177.7067 80° East  Level FlightAware Approximate
Fri 02:17:00 PM 54.8193 -176.3269 81° East 641 738 35,000  Level FlightAware Transoceanic
Fri 02:18:00 PM 54.8449 -176.0272 82° East 641 738 35,000  Level FlightAware Transoceanic
Fri 02:18:19 PM 54.8500 -175.9167 83° East 640 736 35,000  Level Anchorage Center
Fri 02:19:00 PM 54.8698 -175.7271 82° East 641 738 35,000  Level FlightAware Transoceanic
Fri 02:19:19 PM 54.8667 -175.6000 85° East 630 725 35,000  Level Anchorage Center
Fri 02:20:00 PM 54.8940 -175.4267 82° East 641 738 35,000  Level FlightAware Transoceanic
Fri 02:20:20 PM 54.9000 -175.3167 78° East 630 725 35,000  Level Anchorage Center
Fri 02:21:00 PM 54.9174 -175.1259 82° East 641 738 35,000  Level FlightAware Transoceanic
Fri 02:21:20 PM 54.9167 -175.0000 85° East 630 725 35,000  Level Anchorage Center
Fri 02:22:00 PM 54.9417 -174.7628 83° East 643 740 35,000  Level FlightAware Transoceanic
Fri 02:22:20 PM 54.9500 -174.7000 79° East 630 725 35,000  Level Anchorage Center
Fri 02:23:00 PM 54.9652 -174.4413 83° East 643 740 35,000  Level FlightAware Transoceanic
Fri 02:23:20 PM 54.9667 -174.3833 85° East 630 725 35,000  Level Anchorage Center
Fri 02:24:20 PM 54.9833 -174.0833 84° East 630 725 35,000  Level Anchorage Center
Fri 02:25:20 PM 55.0000 -173.7833 84° East 630 725 35,000  Level Anchorage Center
Fri 02:26:20 PM 55.0333 -173.4667 79° East 630 725 35,000  Level Anchorage Center
Fri 02:27:20 PM 55.0500 -173.1667 84° East 640 736 35,000  Level Anchorage Center
Fri 02:28:20 PM 55.0667 -172.8500 85° East 630 725 35,000  Level Anchorage Center
Fri 02:29:20 PM 55.0833 -172.5500 84° East 630 725 35,000  Level Anchorage Center
Fri 02:30:20 PM 55.1000 -172.2500 84° East 620 713 35,000  Level Anchorage Center
Fri 02:31:20 PM 55.1167 -171.9333 85° East 620 713 35,000  Level Anchorage Center
Fri 02:32:20 PM 55.1333 -171.6333 84° East 630 725 35,000  Level Anchorage Center
Fri 02:33:20 PM 55.1500 -171.3333 84° East 620 713 35,000  Level Anchorage Center
Fri 02:34:20 PM 55.1500 -171.0167 90° East 640 736 35,000  Level Anchorage Center
Fri 02:35:20 PM 55.1667 -170.7167 84° East 620 713 35,000  Level Anchorage Center
Fri 02:36:21 PM 55.1833 -170.4000 85° East 640 736 35,000  Level Anchorage Center
Fri 02:37:21 PM 55.2000 -170.1000 84° East 620 713 35,000  Level Anchorage Center
Fri 02:38:21 PM 55.2000 -169.7833 90° East 630 725 35,000 200 Level Anchorage Center
Fri 02:39:21 PM 55.2167 -169.4833 84° East 630 725 35,400 500 Climbing Anchorage Center
Fri 02:40:21 PM 55.2167 -169.1667 90° East 620 713 36,000 300 Climbing Anchorage Center
Fri 02:41:21 PM 55.2333 -168.8667 84° East 610 702 36,000  Level Anchorage Center
Fri 02:42:21 PM 55.2500 -168.5667 84° East 620 713 36,000  Level Anchorage Center
Fri 02:43:21 PM 55.2500 -168.2667 90° East 610 702 36,000  Level Anchorage Center
Fri 02:44:21 PM 55.2500 -167.9667 90° East 610 702 36,000  Level Anchorage Center
Fri 02:45:21 PM 55.2667 -167.6500 85° East 630 725 36,000  Level Anchorage Center
Fri 02:47:01 PM 55.2833 -167.1500 86° East 630 725 36,000  Level Anchorage Center
Fri 02:48:02 PM 55.2833 -166.8833 90° East 610 702 36,000  Level Anchorage Center
Fri 02:49:02 PM 55.2833 -166.5833 90° East 620 713 36,000  Level Anchorage Center
Fri 02:50:02 PM 55.2833 -166.2167 90° East 620 713 36,000  Level Anchorage Center
Fri 02:51:03 PM 55.2833 -165.9167 90° East 620 713 36,000  Level Anchorage Center
Fri 02:52:03 PM 55.2833 -165.6000 90° East 610 702 36,000  Level Anchorage Center
Fri 02:53:03 PM 55.2833 -165.3000 90° East 610 702 36,000  Level Anchorage Center
Fri 02:54:04 PM 55.2833 -165.0000 90° East 620 713 36,000  Level Anchorage Center
Fri 02:55:04 PM 55.2833 -164.7000 90° East 620 713 36,000  Level Anchorage Center
Fri 02:56:04 PM 55.2833 -164.3833 90° East 620 713 36,000  Level Anchorage Center
Fri 02:57:05 PM 55.2833 -164.0833 90° East 630 725 36,000  Level Anchorage Center
Fri 02:58:05 PM 55.2833 -163.7833 90° East 620 713 36,000  Level Anchorage Center
Fri 02:59:06 PM 55.2667 -163.4667 95° East 620 713 36,000  Level Anchorage Center
Fri 03:00:06 PM 55.2667 -163.1667 90° East 620 713 36,000  Level Anchorage Center
Fri 03:01:06 PM 55.2667 -162.8667 90° East 630 725 36,000  Level Anchorage Center
Fri 03:02:07 PM 55.2167 -162.5667 106° East 630 725 36,000  Level Anchorage Center
Fri 03:03:07 PM 55.1667 -162.2667 106° East 660 760 36,000  Level Anchorage Center
Fri 03:04:07 PM 55.1000 -161.9667 111° Southeast 650 748 36,000  Level Anchorage Center
Fri 03:05:07 PM 55.0500 -161.6667 106° East 640 736 36,000  Level Anchorage Center
Fri 03:06:08 PM 55.0000 -161.3833 107° East 630 725 36,000  Level Anchorage Center
Fri 03:07:08 PM 54.9333 -161.0833 111° Southeast 640 736 36,000  Level Anchorage Center
Fri 03:08:08 PM 54.8667 -160.7833 111° Southeast 640 736 36,000  Level Anchorage Center
Fri 03:09:09 PM 54.8167 -160.5000 107° East 640 736 36,000  Level Anchorage Center
Fri 03:10:09 PM 54.7500 -160.2000 111° Southeast 640 736 36,000  Level Anchorage Center
Fri 03:11:09 PM 54.6833 -159.9167 112° Southeast 650 748 36,000  Level Anchorage Center
Fri 03:12:10 PM 54.6167 -159.6333 112° Southeast 630 725 36,000  Level Anchorage Center
Fri 03:13:10 PM 54.5500 -159.2833 108° East 630 725 36,000  Level Anchorage Center
Fri 03:14:10 PM 54.4833 -159.0000 112° Southeast 630 725 36,000  Level Anchorage Center
Fri 03:16:00 PM 54.3855 -158.5578 111° Southeast  Level FlightAware Approximate
Fri 03:23:00 PM 53.9944 -156.8922 112° Southeast  Level FlightAware Approximate
Fri 03:24:00 PM 53.9357 -156.6573 113° Southeast  Level FlightAware Approximate
Fri 03:25:00 PM 53.8766 -156.4229 113° Southeast  Level FlightAware Approximate
Fri 03:26:00 PM 53.8170 -156.1891 113° Southeast  Level FlightAware Approximate
Fri 03:27:00 PM 53.7569 -155.9559 113° Southeast  Level FlightAware Approximate
Fri 03:28:00 PM 53.6964 -155.7235 114° Southeast  Level FlightAware Approximate
Fri 03:29:00 PM 53.6355 -155.4917 114° Southeast  Level FlightAware Approximate
Fri 03:30:00 PM 53.5741 -155.2605 114° Southeast  Level FlightAware Approximate
Fri 03:31:00 PM 53.5122 -155.0301 114° Southeast  Level FlightAware Approximate
Fri 03:32:00 PM 53.4500 -154.8003 114° Southeast  Level FlightAware Approximate
Fri 03:33:00 PM 53.3872 -154.5712 115° Southeast  Level FlightAware Approximate
Fri 03:34:00 PM 53.3241 -154.3428 115° Southeast  Level FlightAware Approximate
Fri 03:35:00 PM 53.2605 -154.1151 115° Southeast  Level FlightAware Approximate
Fri 03:36:00 PM 53.1964 -153.8880 115° Southeast  Level FlightAware Approximate
Fri 03:37:00 PM 53.1320 -153.6616 115° Southeast  Level FlightAware Approximate
Fri 03:38:00 PM 53.0671 -153.4359 115° Southeast  Level FlightAware Approximate
Fri 03:39:00 PM 53.0018 -153.2108 116° Southeast  Level FlightAware Approximate
Fri 03:40:00 PM 52.9360 -152.9865 116° Southeast  Level FlightAware Approximate
Fri 03:41:00 PM 52.8699 -152.7628 116° Southeast  Level FlightAware Approximate
Fri 03:42:00 PM 52.8033 -152.5399 116° Southeast  Level FlightAware Approximate
Fri 03:43:00 PM 52.7363 -152.3176 116° Southeast  Level FlightAware Approximate
Fri 03:43:50 PM 52.3500 -151.0833 117° Southeast 626 720 36,000  Level Oakland Oceanic (ODAPS)
Fri 03:44:00 PM 52.6689 -152.0960 117° Southeast  Level FlightAware Approximate
Fri 03:45:00 PM 52.6011 -151.8750 117° Southeast  Level FlightAware Approximate
Fri 03:46:00 PM 52.5328 -151.6548 117° Southeast  Level FlightAware Approximate
Fri 03:47:00 PM 52.4642 -151.4352 117° Southeast  Level FlightAware Approximate
Fri 03:48:00 PM 52.3951 -151.2164 117° Southeast  Level FlightAware Approximate
Fri 03:48:14 PM 52.0000 -150.0000 111° Southeast 607 699 36,000  Level Oakland Oceanic (ODAPS)
Fri 03:49:00 PM 52.3257 -150.9982 117° Southeast  Level FlightAware Approximate
Fri 03:50:00 PM 51.8801 -149.5070 112° Southeast 626 720 36,000  Level FlightAware Transoceanic
Fri 03:51:00 PM 51.8194 -149.2614 112° Southeast 626 720 36,000  Level FlightAware Transoceanic
Fri 03:52:00 PM 51.7582 -149.0166 112° Southeast 626 720 36,000  Level FlightAware Transoceanic
Fri 03:53:00 PM 51.6965 -148.7724 112° Southeast 626 720 36,000  Level FlightAware Transoceanic
Fri 03:54:00 PM 51.6253 -148.4941 113° Southeast 607 699 36,000  Level FlightAware Transoceanic
Fri 03:55:00 PM 51.5610 -148.2455 113° Southeast 607 699 36,000  Level FlightAware Transoceanic
Fri 03:56:00 PM 51.4962 -147.9977 113° Southeast 607 699 36,000  Level FlightAware Transoceanic
Fri 03:57:00 PM 51.4309 -147.7506 113° Southeast 607 699 36,000  Level FlightAware Transoceanic
Fri 03:58:00 PM 51.3650 -147.5042 113° Southeast 607 699 36,000  Level FlightAware Transoceanic
Fri 03:59:00 PM 51.2986 -147.2584 113° Southeast 607 699 36,000  Level FlightAware Transoceanic
Fri 04:00:00 PM 51.2317 -147.0134 114° Southeast 607 699 36,000  Level FlightAware Transoceanic
Fri 04:01:00 PM 51.1643 -146.7692 114° Southeast 607 699 36,000  Level FlightAware Transoceanic
Fri 04:02:00 PM 51.0964 -146.5256 114° Southeast 607 699 36,000  Level FlightAware Transoceanic
Fri 04:03:00 PM 51.0280 -146.2827 114° Southeast 607 699 36,000  Level FlightAware Transoceanic
Fri 04:04:00 PM 50.9591 -146.0406 114° Southeast 607 699 36,000  Level FlightAware Transoceanic
Fri 04:05:00 PM 50.8897 -145.7992 115° Southeast 607 699 36,000  Level FlightAware Transoceanic
Fri 04:06:00 PM 50.8198 -145.5585 115° Southeast 607 699 36,000  Level FlightAware Transoceanic
Fri 04:07:00 PM 50.7494 -145.3185 115° Southeast 607 699 36,000  Level FlightAware Transoceanic
Fri 04:08:00 PM 50.6785 -145.0793 115° Southeast 607 699 36,000  Level FlightAware Transoceanic
Fri 04:09:00 PM 50.6071 -144.8408 115° Southeast 607 699 36,000  Level FlightAware Transoceanic
Fri 04:10:00 PM 50.5352 -144.6030 116° Southeast 607 699 36,000 606 Level FlightAware Transoceanic
Fri 04:10:39 PM 50.4667 -144.4000 116° Southeast 610 702 37,000  Climbing Oakland Oceanic (ODAPS)
Fri 04:11:00 PM 50.4628 -144.3659 116° Southeast 607 699 36,000 -741 Descending FlightAware Transoceanic
Fri 04:12:00 PM 50.3900 -144.1295 116° Southeast 607 699 36,000  Level FlightAware Transoceanic
Fri 04:13:00 PM 50.3167 -143.8939 116° Southeast 607 699 36,000  Level FlightAware Transoceanic
Fri 04:14:00 PM 50.2429 -143.6591 116° Southeast 607 699 36,000  Level FlightAware Transoceanic
Fri 04:15:00 PM 50.1687 -143.4249 116° Southeast 607 699 36,000 500 Level FlightAware Transoceanic
Fri 04:16:00 PM 50.0216 -142.9818 117° Southeast 610 702 37,000 500 Climbing FlightAware Transoceanic
Fri 04:17:00 PM 49.9458 -142.7480 117° Southeast 610 702 37,000  Level FlightAware Transoceanic
Fri 04:18:00 PM 49.8695 -142.5149 117° Southeast 610 702 37,000  Level FlightAware Transoceanic
Fri 04:19:00 PM 49.7927 -142.2826 117° Southeast 610 702 37,000  Level FlightAware Transoceanic
Fri 04:20:00 PM 49.7155 -142.0510 117° Southeast 610 702 37,000  Level FlightAware Transoceanic
Fri 04:21:00 PM 49.6378 -141.8202 118° Southeast 610 702 37,000  Level FlightAware Transoceanic
Fri 04:22:00 PM 49.5596 -141.5901 118° Southeast 610 702 37,000  Level FlightAware Transoceanic
Fri 04:23:00 PM 49.4810 -141.3607 118° Southeast 610 702 37,000  Level FlightAware Transoceanic
Fri 04:24:00 PM 49.4020 -141.1321 118° Southeast 610 702 37,000  Level FlightAware Transoceanic
Fri 04:25:00 PM 49.3225 -140.9042 118° Southeast 610 702 37,000  Level FlightAware Transoceanic
Fri 04:26:00 PM 49.2425 -140.6770 118° Southeast 610 702 37,000  Level FlightAware Transoceanic
Fri 04:27:00 PM 49.1621 -140.4506 119° Southeast 610 702 37,000  Level FlightAware Transoceanic
Fri 04:28:00 PM 49.0813 -140.2249 119° Southeast 610 702 37,000  Level FlightAware Transoceanic
Fri 04:29:00 PM 49.0000 -140.0000 122° Southeast 610 702 37,000  Level FlightAware Transoceanic
Fri 04:30:00 PM 48.9188 -139.8048 122° Southeast 610 702 37,000  Level FlightAware Transoceanic
Fri 04:30:40 PM 49.0000 -140.0000 122° Southeast 558 642 37,000  Level Oakland Oceanic (ODAPS)
Fri 04:31:00 PM 48.8373 -139.6102 123° Southeast 610 702 37,000  Level FlightAware Transoceanic
Fri 04:32:00 PM 48.7554 -139.4163 123° Southeast 610 702 37,000  Level FlightAware Transoceanic
Fri 04:33:00 PM 48.6733 -139.2230 123° Southeast 610 702 37,000  Level FlightAware Transoceanic
Fri 04:34:00 PM 48.5908 -139.0303 123° Southeast 610 702 37,000  Level FlightAware Transoceanic
Fri 04:35:00 PM 48.5079 -138.8383 123° Southeast 610 702 37,000  Level FlightAware Transoceanic
Fri 04:36:00 PM 48.4248 -138.6469 123° Southeast 610 702 37,000  Level FlightAware Transoceanic
Fri 04:37:00 PM 48.4142 -138.6226 123° Southeast 558 642 37,000  Level FlightAware Transoceanic
Fri 04:37:20 PM 48.4333 -138.6500 123° Southeast 553 636 37,000  Level Oakland Oceanic (ODAPS)
Fri 04:38:00 PM 48.3292 -138.4284 123° Southeast 558 642 37,000  Level FlightAware Transoceanic
Fri 04:39:00 PM 48.2439 -138.2349 124° Southeast 558 642 37,000  Level FlightAware Transoceanic
Fri 04:40:00 PM 48.1582 -138.0420 124° Southeast 558 642 37,000  Level FlightAware Transoceanic
Fri 04:41:00 PM 48.0722 -137.8498 124° Southeast 558 642 37,000  Level FlightAware Transoceanic
Fri 04:42:00 PM 47.9859 -137.6582 124° Southeast 558 642 37,000  Level FlightAware Transoceanic
Fri 04:43:00 PM 47.9163 -137.4906 124° Southeast 553 636 37,000  Level FlightAware Transoceanic
Fri 04:44:00 PM 47.8290 -137.2997 124° Southeast 553 636 37,000  Level FlightAware Transoceanic
Fri 04:45:00 PM 47.7413 -137.1093 124° Southeast 553 636 37,000  Level FlightAware Transoceanic
Fri 04:46:00 PM 47.6534 -136.9196 125° Southeast 553 636 37,000  Level FlightAware Transoceanic
Fri 04:47:00 PM 47.5652 -136.7306 125° Southeast 553 636 37,000  Level FlightAware Transoceanic
Fri 04:48:00 PM 47.4766 -136.5422 125° Southeast 553 636 37,000  Level FlightAware Transoceanic
Fri 04:49:00 PM 47.3877 -136.3544 125° Southeast 553 636 37,000  Level FlightAware Transoceanic
Fri 04:50:00 PM 47.2986 -136.1673 125° Southeast 553 636 37,000  Level FlightAware Transoceanic
Fri 04:51:00 PM 47.2091 -135.9808 125° Southeast 553 636 37,000  Level FlightAware Transoceanic
Fri 04:52:00 PM 47.1194 -135.7949 125° Southeast 553 636 37,000  Level FlightAware Transoceanic
Fri 04:53:00 PM 47.0293 -135.6097 126° Southeast 553 636 37,000  Level FlightAware Transoceanic
Fri 04:54:00 PM 46.9389 -135.4250 126° Southeast 553 636 37,000  Level FlightAware Transoceanic
Fri 04:55:00 PM 46.8482 -135.2410 126° Southeast 553 636 37,000  Level FlightAware Transoceanic
Fri 04:56:00 PM 46.7573 -135.0576 126° Southeast 553 636 37,000  Level FlightAware Transoceanic
Fri 04:57:00 PM 46.6660 -134.8749 126° Southeast 553 636 37,000  Level FlightAware Transoceanic
Fri 04:58:00 PM 46.5745 -134.6927 126° Southeast 553 636 37,000  Level FlightAware Transoceanic
Fri 04:59:00 PM 46.4827 -134.5112 126° Southeast 553 636 37,000  Level FlightAware Transoceanic
Fri 05:00:00 PM 46.3905 -134.3303 127° Southeast 553 636 37,000  Level FlightAware Transoceanic
Fri 05:01:00 PM 46.2981 -134.1500 127° Southeast 553 636 37,000  Level FlightAware Transoceanic
Fri 05:02:00 PM 46.2055 -133.9703 127° Southeast 553 636 37,000  Level FlightAware Transoceanic
Fri 05:03:00 PM 46.1125 -133.7912 127° Southeast 553 636 37,000  Level FlightAware Transoceanic
Fri 05:03:52 PM 46.0500 -133.6667 127° Southeast 555 639 37,000  Level Oakland Oceanic (ODAPS)
Fri 05:04:00 PM 46.0193 -133.6127 127° Southeast 553 636 37,000  Level FlightAware Transoceanic
Fri 05:05:00 PM 45.9258 -133.4348 127° Southeast 553 636 37,000  Level FlightAware Transoceanic
Fri 05:06:00 PM 45.8320 -133.2575 127° Southeast 553 636 37,000  Level FlightAware Transoceanic
Fri 05:07:00 PM 45.7379 -133.0809 127° Southeast 553 636 37,000  Level FlightAware Transoceanic
Fri 05:08:00 PM 45.6436 -132.9048 128° Southeast 553 636 37,000  Level FlightAware Transoceanic
Fri 05:09:00 PM 45.5490 -132.7293 128° Southeast 553 636 37,000  Level FlightAware Transoceanic
Fri 05:10:00 PM 45.4764 -132.5921 128° Southeast 555 639 37,000  Level FlightAware Transoceanic
Fri 05:11:00 PM 45.3798 -132.4151 128° Southeast 555 639 37,000  Level FlightAware Transoceanic
Fri 05:12:00 PM 45.2830 -132.2388 128° Southeast 555 639 37,000  Level FlightAware Transoceanic
Fri 05:13:00 PM 45.1858 -132.0630 128° Southeast 555 639 37,000  Level FlightAware Transoceanic
Fri 05:14:00 PM 45.0885 -131.8878 128° Southeast 555 639 37,000  Level FlightAware Transoceanic
Fri 05:15:00 PM 44.9908 -131.7133 128° Southeast 555 639 37,000  Level FlightAware Transoceanic
Fri 05:16:00 PM 44.8929 -131.5393 129° Southeast 555 639 37,000  Level FlightAware Transoceanic
Fri 05:17:00 PM 44.7947 -131.3660 129° Southeast 555 639 37,000  Level FlightAware Transoceanic
Fri 05:18:00 PM 44.6963 -131.1932 129° Southeast 555 639 37,000  Level FlightAware Transoceanic
Fri 05:19:00 PM 44.5976 -131.0210 129° Southeast 555 639 37,000  Level FlightAware Transoceanic
Fri 05:20:00 PM 44.4986 -130.8494 129° Southeast 555 639 37,000  Level FlightAware Transoceanic
Fri 05:21:00 PM 44.3994 -130.6783 129° Southeast 555 639 37,000  Level FlightAware Transoceanic
Fri 05:22:00 PM 44.2999 -130.5079 129° Southeast 555 639 37,000  Level FlightAware Transoceanic
Fri 05:23:00 PM 44.2002 -130.3380 129° Southeast 555 639 37,000  Level FlightAware Transoceanic
Fri 05:24:00 PM 44.1002 -130.1687 130° Southeast 555 639 37,000  Level FlightAware Transoceanic
Fri 05:25:00 PM 44.0000 -130.0000 134° Southeast 555 639 37,000  Level FlightAware Transoceanic
Fri 05:25:46 PM 44.0000 -130.0000 134° Southeast 543 625 37,000  Level Oakland Oceanic (ODAPS)
Fri 05:26:00 PM 43.8974 -129.8508 134° Southeast 555 639 37,000  Level FlightAware Transoceanic
Fri 05:27:00 PM 43.7946 -129.7022 134° Southeast 555 639 37,000  Level FlightAware Transoceanic
Fri 05:28:00 PM 43.6916 -129.5541 134° Southeast 555 639 37,000  Level FlightAware Transoceanic
Fri 05:29:00 PM 43.5884 -129.4065 134° Southeast 555 639 37,000  Level FlightAware Transoceanic
Fri 05:30:00 PM 43.4850 -129.2594 134° Southeast 555 639 37,000  Level FlightAware Transoceanic
Fri 05:30:32 PM 43.4833 -129.2667 134° Southeast 539 620 37,000  Level Oakland Oceanic (ODAPS)
Fri 05:31:00 PM 43.3815 -129.1128 134° Southeast 555 639 37,000  Level FlightAware Transoceanic
Fri 05:32:00 PM 43.2777 -128.9666 134° Southeast 543 625 37,000  Level FlightAware Transoceanic
Fri 05:33:00 PM 43.1738 -128.8210 134° Southeast 543 625 37,000  Level FlightAware Transoceanic
Fri 05:34:00 PM 43.0697 -128.6759 135° Southeast 543 625 37,000  Level FlightAware Transoceanic
Fri 05:35:00 PM 42.9654 -128.5313 135° Southeast 543 625 37,000  Level FlightAware Transoceanic
Fri 05:36:00 PM 42.8598 -128.3919 135° Southeast 539 620 37,000  Level FlightAware Transoceanic
Fri 05:37:00 PM 42.7553 -128.2478 135° Southeast 539 620 37,000  Level FlightAware Transoceanic
Fri 05:38:00 PM 42.6505 -128.1042 135° Southeast 539 620 37,000  Level FlightAware Transoceanic
Fri 05:39:00 PM 42.5456 -127.9611 135° Southeast 539 620 37,000  Level FlightAware Transoceanic
Fri 05:40:00 PM 42.4405 -127.8185 135° Southeast 539 620 37,000  Level FlightAware Transoceanic
Fri 05:41:00 PM 42.3353 -127.6763 135° Southeast 539 620 37,000  Level FlightAware Transoceanic
Fri 05:42:00 PM 42.2298 -127.5347 135° Southeast 539 620 37,000  Level FlightAware Transoceanic
Fri 05:43:00 PM 42.1242 -127.3934 135° Southeast 539 620 37,000  Level FlightAware Transoceanic
Fri 05:44:00 PM 42.0184 -127.2527 135° Southeast 539 620 37,000  Level FlightAware Transoceanic
Fri 05:44:15 PM 42.0269 -127.2767 133° Southeast 537 618 37,000  Level Oakland Center
Fri 05:45:00 PM 41.9124 -127.1125 136° Southeast 539 620 37,000  Level FlightAware Transoceanic
Fri 05:45:17 PM 41.9206 -127.1364 136° Southeast 537 618 37,000  Level Oakland Center
Fri 05:46:00 PM 41.8063 -126.9727 136° Southeast 539 620 37,000 -97 Level FlightAware Transoceanic
Fri 05:46:19 PM 41.8175 -126.9967 135° Southeast 534 615 36,900  Descending Oakland Center
Fri 05:47:00 PM 41.7000 -126.8333 133° Southeast 539 620 37,000 97 Climbing FlightAware Transoceanic
Fri 05:47:21 PM 41.7139 -126.8608 136° Southeast 528 608 37,000  Level Oakland Center
Fri 05:48:00 PM 41.6002 -126.6909 133° Southeast 539 620 37,000  Level FlightAware Transoceanic
Fri 05:48:26 PM 41.5917 -126.6967 135° Southeast 521 600 37,000  Level Seattle Center
Fri 05:49:00 PM 41.5001 -126.5488 133° Southeast 539 620 37,000 -103 Level FlightAware Transoceanic
Fri 05:49:24 PM 41.5133 -126.5831 133° Southeast 523 602 36,900 -70 Descending Oakland Center
Fri 05:50:26 PM 41.3978 -126.4167 133° Southeast 517 595 36,900  Level Oakland Center
Fri 05:51:28 PM 41.3011 -126.2789 133° Southeast 514 592 36,900 48 Level Oakland Center
Fri 05:52:30 PM 41.2044 -126.1406 133° Southeast 513 590 37,000 49 Climbing Oakland Center
Fri 05:53:31 PM 41.1061 -126.0022 133° Southeast 514 592 37,000 -49 Level Oakland Center
Fri 05:54:33 PM 41.0003 -125.8744 138° Southeast 513 590 36,900 -49 Descending Seattle Center
Fri 05:55:34 PM 40.8872 -125.7528 141° Southeast 523 602 36,900  Level Seattle Center
Fri 05:56:35 PM 40.7769 -125.6314 140° Southeast 522 601 36,900 15 Level Seattle Center
Fri 06:02:04 PM 40.1320 -124.9470 140° Southeast 527 606 37,000 16 Climbing FlightAware ADS-B
Fri 06:02:40 PM 40.0670 -124.8780 141° Southeast 527 606 37,000  Level FlightAware ADS-B
Fri 06:03:21 PM 40.0010 -124.8090 141° Southeast 527 606 37,000  Level FlightAware ADS-B
Fri 06:03:55 PM 39.9260 -124.7310 141° Southeast 523 602 37,000  Level FlightAware ADS-B
Fri 06:04:30 PM 39.8540 -124.6550 141° Southeast 529 609 37,000  Level FlightAware ADS-B
Fri 06:05:09 PM 39.7810 -124.5790 141° Southeast 527 606 37,000  Level FlightAware ADS-B
Fri 06:05:47 PM 39.7160 -124.5120 142° Southeast 527 606 37,000  Level FlightAware ADS-B
Fri 06:06:22 PM 39.6460 -124.4390 141° Southeast 518 596 37,000 -86 Level FlightAware ADS-B
Fri 06:06:57 PM 39.5740 -124.3650 142° Southeast 516 594 36,900 -761 Descending FlightAware ADS-B
Fri 06:07:33 PM 39.5080 -124.2970 142° Southeast 519 597 36,100 -1,315 Descending FlightAware ADS-B
Fri 06:08:10 PM 39.4440 -124.2320 142° Southeast 520 598 35,300 -1,200 Descending FlightAware ADS-B
Fri 06:08:43 PM 39.3750 -124.1610 141° Southeast 516 594 34,700 -985 Descending FlightAware ADS-B
Fri 06:09:17 PM 39.3100 -124.0940 141° Southeast 516 594 34,200 -857 Descending FlightAware ADS-B
Fri 06:09:53 PM 39.2450 -124.0290 142° Southeast 513 590 33,700 -943 Descending FlightAware ADS-B
Fri 06:10:27 PM 39.1810 -123.9630 141° Southeast 501 577 33,100 -1,543 Descending FlightAware ADS-B
Fri 06:11:03 PM 39.1160 -123.8980 142° Southeast 492 566 31,900 -1,884 Descending FlightAware ADS-B
Fri 06:11:53 PM 39.0320 -123.8120 141° Southeast 487 560 30,400 -1,926 Descending FlightAware ADS-B
Fri 06:12:24 PM 38.9720 -123.7530 143° Southeast 475 547 29,300 -2,055 Descending FlightAware ADS-B
Fri 06:13:06 PM 38.8970 -123.6760 141° Southeast 472 543 27,900 -1,917 Descending FlightAware ADS-B
Fri 06:13:36 PM 38.8450 -123.6240 142° Southeast 465 535 27,000 -1,701 Descending FlightAware ADS-B
Fri 06:14:13 PM 38.7850 -123.5640 142° Southeast 455 524 26,000 -1,735 Descending FlightAware ADS-B
Fri 06:14:59 PM 38.7080 -123.4870 142° Southeast 446 513 24,600 -1,786 Descending FlightAware ADS-B
Fri 06:15:37 PM 38.6470 -123.4260 142° Southeast 440 506 23,500 -1,541 Descending FlightAware ADS-B
Fri 06:16:13 PM 38.6050 -123.3850 143° Southeast 137 158 22,700 -1,417 Descending FlightAware ADS-B
Fri 06:16:49 PM 38.5330 -123.3140 142° Southeast 425 489 21,800 -1,467 Descending FlightAware ADS-B
Fri 06:17:43 PM 38.4510 -123.2320 142° Southeast 418 481 20,500 -1,429 Descending FlightAware ADS-B
Fri 06:18:13 PM 38.4050 -123.1870 143° Southeast 414 476 19,800 -1,250 Descending FlightAware ADS-B
Fri 06:18:55 PM 38.3410 -123.1240 142° Southeast 401 461 19,000 -1,385 Descending FlightAware ADS-B
Fri 06:19:31 PM 38.2890 -123.0730 142° Southeast 395 455 18,000 -1,765 Descending FlightAware ADS-B
Fri 06:20:03 PM 38.2430 -123.0280 142° Southeast 394 453 17,000 -1,754 Descending FlightAware ADS-B
Fri 06:20:36 PM 38.1960 -122.9820 142° Southeast 389 448 16,100 -1,606 Descending FlightAware ADS-B
Fri 06:21:14 PM 38.1430 -122.9290 142° Southeast 383 441 15,100 -1,538 Descending FlightAware ADS-B
Fri 06:21:54 PM 38.0930 -122.8800 142° Southeast 377 434 14,100 -1,600 Descending FlightAware ADS-B
Fri 06:22:29 PM 38.0400 -122.8260 141° Southeast 374 430 13,100 -1,629 Descending FlightAware ADS-B
Fri 06:23:04 PM 37.9970 -122.7780 139° Southeast 367 422 12,200 -1,543 Descending FlightAware ADS-B
Fri 06:23:39 PM 37.9520 -122.7290 139° Southeast 363 418 11,300 -1,099 Descending FlightAware ADS-B
Fri 06:24:15 PM 37.9080 -122.6810 139° Southeast 339 390 10,900 -343 Descending FlightAware ADS-B
Fri 06:24:49 PM 37.8680 -122.6390 140° Southeast 310 357 10,900  Level FlightAware ADS-B
Fri 06:25:19 PM 37.8335 -122.6030 141° Southeast 301 346 10,900  Level FlightAware ADS-B
Fri 06:25:59 PM 37.7930 -122.5590 139° Southeast 304 350 10,900  Level FlightAware ADS-B
Fri 06:26:18 PM 37.7708 -122.5350 139° Southeast 306 352 10,900  Level FlightAware ADS-B
Fri 06:27:05 PM 37.7206 -122.4820 140° Southeast 303 349 10,900  Level FlightAware ADS-B
Fri 06:27:35 PM 37.6898 -122.4490 140° Southeast 272 313 10,900  Level FlightAware ADS-B
Fri 06:28:06 PM 37.6608 -122.4180 140° Southeast 270 311 10,900  Level FlightAware ADS-B
Fri 06:28:38 PM 37.6304 -122.3850 139° Southeast 267 307 10,900  Level FlightAware ADS-B
Fri 06:28:53 PM 37.6156 -122.3710 143° Southeast 271 312 10,900 -250 Level FlightAware ADS-B
Fri 06:29:02 PM 37.6051 -122.3640 152° Southeast 270 311 10,800 -1,200 Descending FlightAware ADS-B
Fri 06:29:33 PM 37.5711 -122.3430 154° Southeast 266 306 10,100 -1,463 Descending FlightAware ADS-B
Fri 06:29:43 PM 37.5592 -122.3370 158° South 266 306 9,800 -2,077 Descending FlightAware ADS-B
Fri 06:29:59 PM 37.5419 -122.3270 155° Southeast 267 307 9,200 -2,323 Descending FlightAware ADS-B
Fri 06:30:14 PM 37.5242 -122.3180 158° South 266 306 8,600 -2,200 Descending FlightAware ADS-B
Fri 06:30:29 PM 37.5070 -122.3090 157° South 264 304 8,100 -1,826 Descending FlightAware ADS-B
Fri 06:30:37 PM 37.4988 -122.3040 154° Southeast 261 300 7,900 -1,636 Descending FlightAware ADS-B
Fri 06:30:40 PM 37.4951 -122.3020 157° South 259 298 7,800 -2,182 Descending FlightAware ADS-B
Fri 06:30:48 PM 37.4878 -122.2950 143° Southeast 253 291 7,500 -2,000 Descending FlightAware ADS-B
Fri 06:30:52 PM 37.4849 -122.2910 132° Southeast 251 289 7,400 -1,714 Descending FlightAware ADS-B
Fri 06:30:55 PM 37.4827 -122.2880 133° Southeast 247 284 7,300 -1,000 Descending FlightAware ADS-B
Fri 06:30:58 PM 37.4806 -122.2840 123° Southeast 244 281 7,300 -2,000 Level FlightAware ADS-B
Fri 06:31:01 PM 37.4785 -122.2800 123° Southeast 242 278 7,100 -2,667 Descending FlightAware ADS-B
Fri 06:31:07 PM 37.4751 -122.2730 121° Southeast 240 276 6,900 -1,750 Descending FlightAware ADS-B
Fri 06:31:25 PM 37.4662 -122.2520 118° Southeast 238 274 6,400 -1,765 Descending FlightAware ADS-B
Fri 06:31:41 PM 37.4578 -122.2320 118° Southeast 235 270 5,900 -1,935 Descending FlightAware ADS-B
Fri 06:31:56 PM 37.4501 -122.2140 118° Southeast 232 267 5,400 -2,000 Descending FlightAware ADS-B
Fri 06:32:02 PM 37.4473 -122.2070 117° Southeast 231 266 5,200 -2,400 Descending FlightAware ADS-B
Fri 06:32:06 PM 37.4458 -122.2020 111° Southeast 232 267 5,000 -2,250 Descending FlightAware ADS-B
Fri 06:32:10 PM 37.4449 -122.1970 103° East 230 265 4,900 -2,000 Descending FlightAware ADS-B
Fri 06:32:15 PM 37.4447 -122.1910 92° East 227 261 4,700 -2,250 Descending FlightAware ADS-B
Fri 06:32:18 PM 37.4450 -122.1860 86° East 225 259 4,600 -1,333 Descending FlightAware ADS-B
Fri 06:32:24 PM 37.4466 -122.1790 74° East 222 255 4,500 -1,091 Descending FlightAware ADS-B
Fri 06:32:29 PM 37.4493 -122.1730 60° Northeast 220 253 4,400 -667 Descending FlightAware ADS-B
Fri 06:32:33 PM 37.4516 -122.1700 46° Northeast 218 251 4,400 -750 Level FlightAware ADS-B
Fri 06:32:37 PM 37.4545 -122.1660 48° Northeast 217 250 4,300 -1,714 Descending FlightAware ADS-B
Fri 06:32:40 PM 37.4572 -122.1640 30° Northeast 216 249 4,200 -1,500 Descending FlightAware ADS-B
Fri 06:32:45 PM 37.4611 -122.1610 31° Northeast 216 249 4,100 -1,000 Descending FlightAware ADS-B
Fri 06:32:52 PM 37.4680 -122.1570 25° Northeast 217 250 4,000 -923 Descending FlightAware ADS-B
Fri 06:32:58 PM 37.4735 -122.1540 23° Northeast 216 249 3,900 -462 Descending FlightAware ADS-B
Fri 06:33:05 PM 37.4806 -122.1530 North 217 250 3,900 -375 Level FlightAware ADS-B
Fri 06:33:14 PM 37.4890 -122.1510 11° North 218 251 3,800 -1,000 Descending FlightAware ADS-B
Fri 06:33:29 PM 37.5043 -122.1500 North 213 245 3,500 -1,286 Descending FlightAware ADS-B
Fri 06:33:42 PM 37.5167 -122.1480 North 202 232 3,200 -1,125 Descending FlightAware ADS-B
Fri 06:33:45 PM 37.5195 -122.1480 360° North 199 229 3,200  Level FlightAware ADS-B
Fri 06:33:48 PM 37.5223 -122.1490 344° North 195 224 3,200  Level FlightAware ADS-B
Fri 06:33:53 PM 37.5263 -122.1510 338° Northwest 193 222 3,200  Level FlightAware ADS-B
Fri 06:33:57 PM 37.5293 -122.1530 332° Northwest 193 222 3,200  Level FlightAware ADS-B
Fri 06:34:00 PM 37.5313 -122.1550 322° Northwest 193 222 3,200 -857 Level FlightAware ADS-B
Fri 06:34:04 PM 37.5336 -122.1590 306° West 195 224 3,100 -857 Descending FlightAware ADS-B
Fri 06:34:07 PM 37.5348 -122.1620 297° West 196 226 3,100 -857 Level FlightAware ADS-B
Fri 06:34:11 PM 37.5357 -122.1660 286° West 197 227 3,000 -1,091 Descending FlightAware ADS-B
Fri 06:34:18 PM 37.5370 -122.1750 280° West 195 224 2,900 -1,091 Descending FlightAware ADS-B
Fri 06:34:22 PM 37.5377 -122.1780 286° West 195 224 2,800 -1,500 Descending FlightAware ADS-B
Fri 06:34:26 PM 37.5391 -122.1830 289° West 194 223 2,700 -750 Descending FlightAware ADS-B
Fri 06:34:30 PM 37.5405 -122.1880 289° West 195 224 2,700 -1,000 Level FlightAware ADS-B
Fri 06:34:38 PM 37.5434 -122.1960 295° West 195 224 2,500 -900 Descending FlightAware ADS-B
Fri 06:34:50 PM 37.5481 -122.2070 298° West 193 222 2,400 -889 Descending FlightAware ADS-B
Fri 06:35:05 PM 37.5544 -122.2220 298° West 191 220 2,100 -1,000 Descending FlightAware ADS-B
Fri 06:35:20 PM 37.5605 -122.2370 297° West 184 212 1,900 -938 Descending FlightAware ADS-B
Fri 06:35:37 PM 37.5670 -122.2520 299° West 173 199 1,600 -909 Descending FlightAware ADS-B
Fri 06:35:53 PM 37.5729 -122.2660 298° West 157 181 1,400 -750 Descending FlightAware ADS-B
Fri 06:36:09 PM 37.5779 -122.2780 298° West 149 171 1,200 -581 Descending FlightAware ADS-B
Fri 06:36:24 PM 37.5827 -122.2890 299° West 145 167 1,100 -563 Descending FlightAware ADS-B
Fri 06:36:41 PM 37.5880 -122.3020 297° West 146 168 900 -774 Descending FlightAware ADS-B
Fri 06:36:55 PM 37.5924 -122.3120 299° West 146 168 700 -800 Descending FlightAware ADS-B
Fri 06:37:11 PM 37.5976 -122.3250 297° West 145 167 500 -750 Descending FlightAware ADS-B
Fri 06:37:27 PM 37.6025 -122.3360 299° West 140 161 300 -692 Descending FlightAware ADS-B
Fri 06:37:37 PM 37.6055 -122.3430 298° West 138 159 200 -600 Descending FlightAware ADS-B
Fri 06:37:52 PM 37.6097 -122.3540 296° West 133 153 -800 Descending FlightAware ADS-B
Fri 06:38:09 PM 37.6146 -122.3650 299° West 130 150  Level FlightAware ADS-B

Login

Don't have an account? Register now (free) for customized features, flight alerts, and more!